• Join FlightAware (Why Join?)
  • Login
  • US Flag 
02:36PM EDT


 

Airport Tracker/Info


-or-


 

Live Flight TrackerFlight Track Log ✈ ASQ4633 ✈ 22-Apr-2013 ✈ KEWR - KBTV

Flight Track Log - Related Links

Times and Time Zones

All times are in EDT time to prevent confusion due to time zone crossing. See the ASQ4633 flight status page for this flight to view local times or setup timezone preferences in your user account.

Time Position Orientation Groundspeed Altitude Reporting Facility
EDT Latitude Longitude Course Direction KTS MPH feet Rate Location/Type
02:11PM 40.7167 -74.1500 27° Northeast 165 190 2,300  Level New York TRACON
02:13PM 40.8033 -74.0303 46° Northeast 196 226 5,800 1,920 Climbing Boston Center
02:14PM 40.9797 -73.8370 37° Northeast  Level FlightAware Approximate
02:14PM 40.8086 -73.9400 86° East 209 241 8,500  Level Boston Center
02:15PM 41.0573 -73.7523 40° Northeast  Level FlightAware Approximate
02:15PM 40.8244 -73.8444 78° East 240 276 10,000  Level Boston Center
02:16PM 41.1340 -73.6662 27° Northeast  Level FlightAware Approximate
02:16PM 40.8983 -73.7664 39° Northeast 292 336 11,500  Level Boston Center
02:17PM 40.9844 -73.7022 29° Northeast 311 358 13,600 1,860 Climbing Boston Center
02:18PM 41.0686 -73.6350 31° Northeast 342 394 15,300 1,500 Climbing Boston Center
02:19PM 41.1464 -73.5758 30° Northeast 357 411 16,700 1,200 Climbing Boston Center
02:20PM 41.2472 -73.4975 30° Northeast 364 419 17,800 1,320 Climbing Boston Center
02:21PM 41.3475 -73.4519 19° North 369 425 19,400 1,440 Climbing Boston Center
02:22PM 41.4539 -73.4483 North 369 425 20,700 780 Climbing Boston Center
02:23PM 41.5622 -73.4417 North 375 432 21,000 120 Climbing Boston Center
02:24PM 41.6811 -73.4325 North 397 457 21,000  Level Boston Center
02:25PM 41.8022 -73.4258 North 421 484 21,000  Level Boston Center
02:26PM 41.9189 -73.4194 North 421 484 21,000 -180 Level Boston Center
02:27PM 42.0378 -73.4100 North 421 484 20,700 -600 Descending Boston Center
02:28PM 42.1483 -73.3978 North 427 491 19,900 -1,260 Descending Boston Center
02:29PM 42.2756 -73.3969 360° North 421 484 18,200 -960 Descending Boston Center
02:30PM 42.3903 -73.3875 North 421 484 18,000 -120 Descending Boston Center
02:31PM 42.4925 -73.3806 North 416 479 18,000  Level Boston Center
02:32PM 42.6197 -73.3711 North 411 473 18,000 120 Level Boston Center
02:33PM 42.7239 -73.3642 North 411 473 18,300 -360 Climbing Boston Center
02:34PM 42.8489 -73.3547 North 411 473 17,300 -660 Descending Boston Center
02:35PM 42.9492 -73.3478 North 405 466 17,000 -180 Descending Boston Center
02:36PM 43.0722 -73.3353 North 405 466 17,000  Level Boston Center
02:37PM 43.1703 -73.3253 North 400 460 17,000 -300 Level Boston Center
02:38PM 43.2869 -73.3128 North 393 452 16,400 -900 Descending Boston Center
02:39PM 43.3808 -73.3000 North 378 435 15,200 -1,440 Descending Boston Center
02:40PM 43.4975 -73.2872 North 373 429 13,600 -1,500 Descending Boston Center
02:41PM 43.6039 -73.2772 North 373 429 12,300 -1,140 Descending Boston Center
02:42PM 43.7083 -73.2644 North 373 429 11,400 -660 Descending Boston Center
02:43PM 43.8125 -73.2542 North 378 435 11,000 -240 Descending Boston Center
02:44PM 43.9169 -73.2414 North 373 429 11,000 -120 Level Boston Center
02:45PM 44.0128 -73.2425 360° North 357 411 10,800 -960 Descending Boston Center
02:46PM 44.0981 -73.2525 355° North 326 375 9,100 -1,740 Descending Boston Center
02:47PM 44.1772 -73.2650 354° North 297 342 7,400 -1,740 Descending Boston Center
02:48PM 44.2542 -73.2747 355° North 285 328 5,700 -1,500 Descending Boston Center
02:49PM 44.3289 -73.2903 352° North 275 316 4,400 -1,200 Descending Boston Center
02:50PM 44.3997 -73.2972 356° North 270 311 3,400 -1,020 Descending Boston Center